Aérodrome :
LOGIN :

S'inscrire | Disclaimer

   EN    FR    IT 

 










Légende :    VFR   VFR Marginal   IFR   IFR Intensif   IFR Très Intensif
Visi : 
Plafond : 
>= 8 km
>= 3000ft
5 à 8 km
1000 à 3000 ft
1500m à 5 km
500 à 1000 ft
800 à 1500m
200 à 500 ft
< 800m
< 200 ft
Symboles :   Orages  Brouillard  Fortes neiges  Fortes précipitations  Vent > 20 kt
SIGMETs :   Divers  Orages  Givrage  Turbulence  Onde Orograph.  Cendres Volcan.






- Altitude de l'aérodrome : 202 ft
- Code IATA : SQZ


EGXP - RAF Scampton

DERNIER METAR :
  • 012150Z AUTO 21006KT 9999 // BKN060/// 15/09 Q1016

METARs EXPIRÉS :
  • 011550Z AUTO 24009KT 9999 // OVC060/// 17/08 Q1014
  • 012050Z AUTO 22007KT 9999 // NCD 15/09 Q1015
  • 011950Z AUTO 22008KT 9999 // NCD 16/09 Q1015
  • 010450Z AUTO 23007KT 9999 // BKN049/// BKN080/// BKN100/// 11/11 Q1012

Prévision TAF périmée.



MET'MAP, la Météo Aéronautique d'un coup d'oeil ! - Copyright ORBIFLY Décembre 2007 - Disclaimer

ORBIFLY MET'MAP TEAM :

Programmation & Développement : Alexandra Zaïnal
Sur une idée originale de : Baudouin d'Aumeries
Soutien technique & logistique : Manuel Goepfert
Assistance : Marc-Olivier Méhu




SOURCES & CREDITS :

   NOAA